VTBS/BKK METAR and TAF weather

Enter ICAO airport designator
Station Type Date Time Source
VTBS METAR 2022/06/26 07:30 UTC NOAA

VTBS 260730Z 19012KT 9999 VCTS FEW020CB SCT035 32/23 Q1007 NOSIG


Station Type Date Time Source
VTBS Decoded METAR 2022/06/26 07:30 UTC NOAA

Chon Buri, Thailand (VTBS) 13-22N 100-59E 2M
Jun 26, 2022 - 03:30 AM EDT / 2022.06.26 0730 UTC
Wind: from the S (190 degrees) at 14 MPH (12 KT):0
Visibility: greater than 7 mile(s):0
Sky conditions: partly cloudy
Weather: thunder in the vicinity; Cumulonimbus clouds observed
Temperature: 89 F (32 C)
Heat index: 96.8 F (36.0 C):1
Dew Point: 73 F (23 C)
Relative Humidity: 59%
Pressure (altimeter): 29.74 in. Hg (1007 hPa)
ob: VTBS 260730Z 19012KT 9999 VCTS FEW020CB SCT035 32/23 Q1007 NOSIG
cycle: 7

Station Type Date Time Source
VTBS TAF 2022/06/26 06:00 UTC NOAA

TAF VTBS 260500Z 2606/2712 21008KT 9999 FEW020 SCT040
TEMPO 2606/2609 VRB15KT 4000 TSRA FEW018CB SCT035
BECMG 2618/2620 12005KT
BECMG 2704/2706 22008KT
TEMPO 2705/2709 VRB15KT 4000 TSRA FEW018CB SCT035

Example: see airport list